createdAt,value
2022-09-09T00:00:06.313Z,44.03
2022-09-09T00:00:37.725Z,43.78
2022-09-09T00:01:09.110Z,43.71
2022-09-09T00:01:40.581Z,43.83
2022-09-09T00:02:12.046Z,44.07
2022-09-09T00:02:43.602Z,44.17
2022-09-09T00:03:15.140Z,44.28
2022-09-09T00:03:46.655Z,44.27
2022-09-09T00:04:18.077Z,43.88
2022-09-09T00:04:49.465Z,43.79
2022-09-09T00:05:20.853Z,44.01
2022-09-09T00:05:52.260Z,43.70
2022-09-09T00:06:23.706Z,43.72
2022-09-09T00:06:55.098Z,43.79
2022-09-09T00:07:26.513Z,43.94
2022-09-09T00:07:57.897Z,43.70
2022-09-09T00:08:29.296Z,43.78
2022-09-09T00:09:00.681Z,43.73
2022-09-09T00:09:32.084Z,43.93
2022-09-09T00:10:03.467Z,43.90
2022-09-09T00:10:34.852Z,43.92
2022-09-09T00:11:06.249Z,44.05
2022-09-09T00:11:37.657Z,43.90
2022-09-09T00:12:09.055Z,44.17
2022-09-09T00:12:40.452Z,44.14
2022-09-09T00:13:11.882Z,44.23
2022-09-09T00:13:43.284Z,43.93
2022-09-09T00:14:14.664Z,43.89
2022-09-09T00:14:46.045Z,43.61
2022-09-09T00:15:17.435Z,43.69
2022-09-09T00:15:48.874Z,43.71
2022-09-09T00:16:20.374Z,43.91
2022-09-09T00:16:51.934Z,44.06
2022-09-09T00:17:23.319Z,44.00
2022-09-09T00:17:54.708Z,43.67
2022-09-09T00:18:26.092Z,43.83
2022-09-09T00:18:57.475Z,44.06
2022-09-09T00:19:28.863Z,44.35
2022-09-09T00:20:00.262Z,43.70
2022-09-09T00:20:31.666Z,44.06
2022-09-09T00:21:03.073Z,43.80
2022-09-09T00:21:34.556Z,44.29
2022-09-09T00:22:05.961Z,43.78
2022-09-09T00:22:37.363Z,44.03
2022-09-09T00:23:08.763Z,43.90
2022-09-09T00:23:40.155Z,43.98
2022-09-09T00:24:11.579Z,44.01
2022-09-09T00:24:42.984Z,43.95
2022-09-09T00:25:14.366Z,43.59
2022-09-09T00:25:47.983Z,43.60
2022-09-09T00:26:22.152Z,44.26
2022-09-09T00:26:53.642Z,44.10
2022-09-09T00:27:25.024Z,44.04
2022-09-09T00:27:56.418Z,43.79
2022-09-09T00:28:27.809Z,44.32
2022-09-09T00:28:59.218Z,43.84
2022-09-09T00:29:30.610Z,43.88
2022-09-09T00:30:01.995Z,44.09
2022-09-09T00:30:33.416Z,43.96
2022-09-09T00:31:04.927Z,43.72
2022-09-09T00:31:36.339Z,43.71
2022-09-09T00:32:07.817Z,44.03
2022-09-09T00:32:39.195Z,44.31
2022-09-09T00:33:13.783Z,43.78
2022-09-09T00:33:45.480Z,43.81
2022-09-09T00:34:16.872Z,44.07
2022-09-09T00:34:48.263Z,44.26
2022-09-09T00:35:19.685Z,44.00
2022-09-09T00:35:51.062Z,43.83
2022-09-09T00:36:22.459Z,43.68
2022-09-09T00:36:53.900Z,44.13
2022-09-09T00:37:25.288Z,43.74
2022-09-09T00:37:56.688Z,44.11
2022-09-09T00:38:28.071Z,44.08
2022-09-09T00:38:59.456Z,44.27
2022-09-09T00:39:30.883Z,44.13
2022-09-09T00:40:02.367Z,43.64
2022-09-09T00:40:33.807Z,44.01
2022-09-09T00:41:05.195Z,44.38
2022-09-09T00:41:36.588Z,44.02
2022-09-09T00:42:08.082Z,44.44
2022-09-09T00:42:39.456Z,44.36
2022-09-09T00:43:10.862Z,43.99
2022-09-09T00:43:42.244Z,43.88
2022-09-09T00:44:13.645Z,44.06
2022-09-09T00:44:45.048Z,44.32
2022-09-09T00:45:16.453Z,44.23
2022-09-09T00:45:47.887Z,44.57
2022-09-09T00:46:19.360Z,44.33
2022-09-09T00:46:50.834Z,44.28
2022-09-09T00:47:22.326Z,44.27
2022-09-09T00:47:53.720Z,44.36
2022-09-09T00:48:25.105Z,43.86
2022-09-09T00:48:56.512Z,44.00
2022-09-09T00:49:27.905Z,44.12
2022-09-09T00:50:01.295Z,43.95
2022-09-09T00:50:32.949Z,44.18
2022-09-09T00:51:04.346Z,44.21
2022-09-09T00:51:35.723Z,43.88
2022-09-09T00:52:07.127Z,44.00
2022-09-09T00:52:38.636Z,43.98
2022-09-09T00:53:10.024Z,44.47
2022-09-09T00:53:41.408Z,44.02
2022-09-09T00:54:12.791Z,43.79
2022-09-09T00:54:44.174Z,44.12
2022-09-09T00:55:15.554Z,44.34
2022-09-09T00:55:46.936Z,44.32
2022-09-09T00:56:18.341Z,44.48
2022-09-09T00:56:49.724Z,43.83
2022-09-09T00:57:21.111Z,44.24
2022-09-09T00:57:52.600Z,44.32
2022-09-09T00:58:23.988Z,44.18
2022-09-09T00:58:55.401Z,44.25
2022-09-09T00:59:28.598Z,44.25
2022-09-09T01:00:00.132Z,43.97
2022-09-09T01:00:31.529Z,44.28
2022-09-09T01:01:03.000Z,44.42
2022-09-09T01:01:34.450Z,44.43
2022-09-09T01:02:05.918Z,44.19
2022-09-09T01:02:37.373Z,44.19
2022-09-09T01:03:08.932Z,44.08
2022-09-09T01:03:40.315Z,44.49
2022-09-09T01:04:11.729Z,44.35
2022-09-09T01:04:43.126Z,44.47
2022-09-09T01:05:14.509Z,43.99
2022-09-09T01:05:45.920Z,44.29
2022-09-09T01:06:17.319Z,44.07
2022-09-09T01:06:48.708Z,44.21
2022-09-09T01:07:20.117Z,44.25
2022-09-09T01:07:55.047Z,44.42
2022-09-09T01:08:29.365Z,44.03
2022-09-09T01:09:00.827Z,44.25
2022-09-09T01:09:32.213Z,44.08
2022-09-09T01:10:03.648Z,44.32
2022-09-09T01:10:35.060Z,44.02
2022-09-09T01:11:06.440Z,44.23
2022-09-09T01:11:37.847Z,44.64
2022-09-09T01:12:09.253Z,44.40
2022-09-09T01:12:40.643Z,44.25
2022-09-09T01:13:12.043Z,44.65
2022-09-09T01:13:43.449Z,44.49
2022-09-09T01:14:14.832Z,43.90
2022-09-09T01:14:46.228Z,44.15
2022-09-09T01:15:17.626Z,44.25
2022-09-09T01:15:49.008Z,43.84
2022-09-09T01:16:20.426Z,44.48
2022-09-09T01:16:51.905Z,44.05
2022-09-09T01:17:23.353Z,44.47
2022-09-09T01:17:54.776Z,44.18
2022-09-09T01:18:26.309Z,44.42
2022-09-09T01:18:57.697Z,43.77
2022-09-09T01:19:29.075Z,44.26
2022-09-09T01:20:00.455Z,44.61
2022-09-09T01:20:31.841Z,43.97
2022-09-09T01:21:03.247Z,44.21
2022-09-09T01:21:34.635Z,44.62
2022-09-09T01:22:06.018Z,44.00
2022-09-09T01:22:37.464Z,44.24
2022-09-09T01:23:08.852Z,44.11
2022-09-09T01:23:40.251Z,44.41
2022-09-09T01:24:11.637Z,44.22
2022-09-09T01:24:43.045Z,44.09
2022-09-09T01:25:14.428Z,44.40
2022-09-09T01:25:45.824Z,43.91
2022-09-09T01:26:17.210Z,44.44
2022-09-09T01:26:48.604Z,44.21
2022-09-09T01:27:20.008Z,44.28
2022-09-09T01:27:51.418Z,44.22
2022-09-09T01:28:22.809Z,44.38
2022-09-09T01:28:54.245Z,44.55
2022-09-09T01:29:25.651Z,44.17
2022-09-09T01:29:57.075Z,44.15
2022-09-09T01:30:28.530Z,44.27
2022-09-09T01:31:00.100Z,44.08
2022-09-09T01:31:31.554Z,44.44
2022-09-09T01:32:02.939Z,44.43
2022-09-09T01:32:34.345Z,44.25
2022-09-09T01:33:05.734Z,44.69
2022-09-09T01:33:37.292Z,44.09
2022-09-09T01:34:08.797Z,44.17
2022-09-09T01:34:40.200Z,43.94
2022-09-09T01:35:11.589Z,44.15
2022-09-09T01:35:42.978Z,44.41
2022-09-09T01:36:14.364Z,44.04
2022-09-09T01:36:45.746Z,44.41
2022-09-09T01:37:17.137Z,44.34
2022-09-09T01:37:48.521Z,44.31
2022-09-09T01:38:19.903Z,44.59
2022-09-09T01:38:51.416Z,44.35
2022-09-09T01:39:22.799Z,44.49
2022-09-09T01:39:54.256Z,44.47
2022-09-09T01:40:25.656Z,44.06
2022-09-09T01:40:57.035Z,44.73
2022-09-09T01:41:28.420Z,44.35
2022-09-09T01:41:59.825Z,44.30
2022-09-09T01:42:31.213Z,44.03
2022-09-09T01:43:02.595Z,44.42
2022-09-09T01:43:33.998Z,44.40
2022-09-09T01:44:05.499Z,44.36
2022-09-09T01:44:36.899Z,44.07
2022-09-09T01:45:08.281Z,44.35
2022-09-09T01:45:39.695Z,44.34
2022-09-09T01:46:11.227Z,44.33
2022-09-09T01:46:42.708Z,44.42
2022-09-09T01:47:14.106Z,44.58
2022-09-09T01:47:45.486Z,44.35
2022-09-09T01:48:16.893Z,44.27
2022-09-09T01:48:48.285Z,44.30
2022-09-09T01:49:19.784Z,44.58
2022-09-09T01:49:51.185Z,44.07
2022-09-09T01:50:22.574Z,44.21
2022-09-09T01:50:53.978Z,44.42
2022-09-09T01:51:25.364Z,44.52
2022-09-09T01:51:56.748Z,44.23
2022-09-09T01:52:28.147Z,44.45
2022-09-09T01:52:59.527Z,44.61
2022-09-09T01:53:30.928Z,44.20
2022-09-09T01:54:02.313Z,44.31
2022-09-09T01:54:33.828Z,44.61
2022-09-09T01:55:05.219Z,44.37
2022-09-09T01:55:36.629Z,44.47
2022-09-09T01:56:08.020Z,44.14
2022-09-09T01:56:39.472Z,44.65
2022-09-09T01:57:10.872Z,44.11
2022-09-09T01:57:42.282Z,44.44
2022-09-09T01:58:13.669Z,44.07
2022-09-09T01:58:45.051Z,44.12
2022-09-09T01:59:16.441Z,44.54
2022-09-09T01:59:48.016Z,44.39
2022-09-09T02:00:19.418Z,44.34
2022-09-09T02:00:50.862Z,44.13
2022-09-09T02:01:22.367Z,44.48
2022-09-09T02:01:53.848Z,44.23
2022-09-09T02:02:25.280Z,44.57
2022-09-09T02:02:56.731Z,44.47
2022-09-09T02:03:28.133Z,44.60
2022-09-09T02:03:59.516Z,44.48
2022-09-09T02:04:30.925Z,44.48
2022-09-09T02:05:02.426Z,44.60
2022-09-09T02:05:33.811Z,44.22
2022-09-09T02:06:05.249Z,44.09
2022-09-09T02:06:36.633Z,44.46
2022-09-09T02:07:08.037Z,44.01
2022-09-09T02:07:39.415Z,44.37
2022-09-09T02:08:10.800Z,44.46
2022-09-09T02:08:42.186Z,44.46
2022-09-09T02:09:13.591Z,44.52
2022-09-09T02:09:44.972Z,44.79
2022-09-09T02:10:16.486Z,44.23
2022-09-09T02:10:47.873Z,44.59
2022-09-09T02:11:19.258Z,44.84
2022-09-09T02:11:50.644Z,44.19
2022-09-09T02:12:22.048Z,44.82
2022-09-09T02:12:53.460Z,44.52
2022-09-09T02:13:24.897Z,44.32
2022-09-09T02:13:56.279Z,44.38
2022-09-09T02:14:27.684Z,44.54
2022-09-09T02:14:59.072Z,44.66
2022-09-09T02:15:30.492Z,44.53
2022-09-09T02:16:01.898Z,44.30
2022-09-09T02:16:33.336Z,44.35
2022-09-09T02:17:04.814Z,44.55
2022-09-09T02:17:36.269Z,44.67
2022-09-09T02:18:07.675Z,44.46
2022-09-09T02:18:39.081Z,44.42
2022-09-09T02:19:10.471Z,44.77
2022-09-09T02:19:41.877Z,44.27
2022-09-09T02:20:13.260Z,44.47
2022-09-09T02:20:44.717Z,44.57
2022-09-09T02:21:16.131Z,44.40
2022-09-09T02:21:47.515Z,44.49
2022-09-09T02:22:19.097Z,44.10
2022-09-09T02:22:50.541Z,44.70
2022-09-09T02:23:22.064Z,44.57
2022-09-09T02:23:53.542Z,44.80
2022-09-09T02:24:24.947Z,44.40
2022-09-09T02:24:56.335Z,44.22
2022-09-09T02:25:27.712Z,44.30
2022-09-09T02:25:59.127Z,44.52
2022-09-09T02:26:30.519Z,44.52
2022-09-09T02:27:01.923Z,44.48
2022-09-09T02:27:33.321Z,44.78
2022-09-09T02:28:04.704Z,44.33
2022-09-09T02:28:36.271Z,44.19
2022-09-09T02:29:07.788Z,44.32
2022-09-09T02:29:39.361Z,44.54
2022-09-09T02:30:10.739Z,44.49
2022-09-09T02:30:42.321Z,44.65
2022-09-09T02:31:13.849Z,44.87
2022-09-09T02:31:45.276Z,44.48
2022-09-09T02:32:16.663Z,44.36
2022-09-09T02:32:48.040Z,44.59
2022-09-09T02:33:19.448Z,44.72
2022-09-09T02:33:50.880Z,44.56
2022-09-09T02:34:22.264Z,44.43
2022-09-09T02:34:53.671Z,44.64
2022-09-09T02:35:25.060Z,44.69
2022-09-09T02:35:56.464Z,44.70
2022-09-09T02:36:27.915Z,44.65
2022-09-09T02:36:59.311Z,44.87
2022-09-09T02:37:30.695Z,44.65
2022-09-09T02:38:02.092Z,44.72
2022-09-09T02:38:33.506Z,44.62
2022-09-09T02:39:04.897Z,44.56
2022-09-09T02:39:36.343Z,44.53
2022-09-09T02:40:07.861Z,44.49
2022-09-09T02:40:39.291Z,44.91
2022-09-09T02:41:10.679Z,44.52
2022-09-09T02:41:42.084Z,44.05
2022-09-09T02:42:13.468Z,44.46
2022-09-09T02:42:44.880Z,44.44
2022-09-09T02:43:16.259Z,44.54
2022-09-09T02:43:47.647Z,44.76
2022-09-09T02:44:19.026Z,44.45
2022-09-09T02:44:50.437Z,44.32
2022-09-09T02:45:21.844Z,44.81
2022-09-09T02:45:53.282Z,44.60
2022-09-09T02:46:24.716Z,44.70
2022-09-09T02:46:56.105Z,44.32
2022-09-09T02:47:27.487Z,44.43
2022-09-09T02:47:58.884Z,44.44
2022-09-09T02:48:30.271Z,44.77
2022-09-09T02:49:01.660Z,44.58
2022-09-09T02:49:33.052Z,44.77
2022-09-09T02:50:04.473Z,44.78
2022-09-09T02:50:35.860Z,44.23
2022-09-09T02:51:07.249Z,44.75
2022-09-09T02:51:38.680Z,44.82
2022-09-09T02:52:10.061Z,44.88
2022-09-09T02:52:41.458Z,44.51
2022-09-09T02:53:12.869Z,44.87
2022-09-09T02:53:44.250Z,44.57
2022-09-09T02:54:15.657Z,44.90
2022-09-09T02:54:47.040Z,44.87
2022-09-09T02:55:18.443Z,44.49
2022-09-09T02:55:49.839Z,44.88
2022-09-09T02:56:21.225Z,44.65
2022-09-09T02:56:52.637Z,44.63
2022-09-09T02:57:24.016Z,44.56
2022-09-09T02:57:55.409Z,44.96
2022-09-09T02:58:26.803Z,44.48
2022-09-09T02:58:58.190Z,44.73
2022-09-09T02:59:29.581Z,44.72
2022-09-09T03:00:00.984Z,44.55
2022-09-09T03:00:32.370Z,44.66
2022-09-09T03:01:03.807Z,44.49
2022-09-09T03:01:35.342Z,44.67
2022-09-09T03:02:06.973Z,44.92
2022-09-09T03:02:38.466Z,44.77
2022-09-09T03:03:09.919Z,44.77
2022-09-09T03:03:41.320Z,44.85
2022-09-09T03:04:12.719Z,44.66
2022-09-09T03:04:44.108Z,44.72
2022-09-09T03:05:15.492Z,44.74
2022-09-09T03:05:46.882Z,44.57
2022-09-09T03:06:18.270Z,45.12
2022-09-09T03:06:49.660Z,44.69
2022-09-09T03:07:21.167Z,44.59
2022-09-09T03:07:52.557Z,44.83
2022-09-09T03:08:23.936Z,44.54
2022-09-09T03:08:55.311Z,44.71
2022-09-09T03:09:26.718Z,45.04
2022-09-09T03:09:58.099Z,44.71
2022-09-09T03:10:29.499Z,44.73
2022-09-09T03:11:00.881Z,45.02
2022-09-09T03:11:32.276Z,44.63
2022-09-09T03:12:03.689Z,44.93
2022-09-09T03:12:35.224Z,44.62
2022-09-09T03:13:06.602Z,44.79
2022-09-09T03:13:37.991Z,45.07
2022-09-09T03:14:09.386Z,44.69
2022-09-09T03:14:40.791Z,44.85
2022-09-09T03:15:12.196Z,44.59
2022-09-09T03:15:43.583Z,44.44
2022-09-09T03:16:14.990Z,44.51
2022-09-09T03:16:46.425Z,44.71
2022-09-09T03:17:17.834Z,44.85
2022-09-09T03:17:49.268Z,44.47
2022-09-09T03:18:20.654Z,44.82
2022-09-09T03:18:52.047Z,44.71
2022-09-09T03:19:23.457Z,44.96
2022-09-09T03:19:54.849Z,44.75
2022-09-09T03:20:26.231Z,44.66
2022-09-09T03:20:57.640Z,44.54
2022-09-09T03:21:29.044Z,45.01
2022-09-09T03:22:00.421Z,44.54
2022-09-09T03:22:31.802Z,44.75
2022-09-09T03:23:03.352Z,44.63
2022-09-09T03:23:34.743Z,44.65
2022-09-09T03:24:06.138Z,44.79
2022-09-09T03:24:37.552Z,44.54
2022-09-09T03:25:08.931Z,44.75
2022-09-09T03:25:40.315Z,44.57
2022-09-09T03:26:11.697Z,44.72
2022-09-09T03:26:43.089Z,44.88
2022-09-09T03:27:14.477Z,44.58
2022-09-09T03:27:45.860Z,44.83
2022-09-09T03:28:17.263Z,44.81
2022-09-09T03:28:48.667Z,45.02
2022-09-09T03:29:20.047Z,45.09
2022-09-09T03:29:51.443Z,44.93
2022-09-09T03:30:22.832Z,44.54
2022-09-09T03:30:54.215Z,44.67
2022-09-09T03:31:25.627Z,44.95
2022-09-09T03:31:57.098Z,44.38
2022-09-09T03:32:28.542Z,44.96
2022-09-09T03:33:00.017Z,45.12
2022-09-09T03:33:31.399Z,44.75
2022-09-09T03:34:02.951Z,45.07
2022-09-09T03:34:34.335Z,44.78
2022-09-09T03:35:05.738Z,44.57
2022-09-09T03:35:37.149Z,44.79
2022-09-09T03:36:08.532Z,44.58
2022-09-09T03:36:39.939Z,44.83
2022-09-09T03:37:11.321Z,44.81
2022-09-09T03:37:42.720Z,44.92
2022-09-09T03:38:14.171Z,44.75
2022-09-09T03:38:45.553Z,44.76
2022-09-09T03:39:16.936Z,45.17
2022-09-09T03:39:48.361Z,44.89
2022-09-09T03:40:19.865Z,44.51
2022-09-09T03:40:51.317Z,44.90
2022-09-09T03:41:22.705Z,44.66
2022-09-09T03:41:54.103Z,44.78
2022-09-09T03:42:25.519Z,44.80
2022-09-09T03:42:56.936Z,44.59
2022-09-09T03:43:28.461Z,44.74
2022-09-09T03:43:59.856Z,44.96
2022-09-09T03:44:31.283Z,45.05
2022-09-09T03:45:02.672Z,44.50
2022-09-09T03:45:34.148Z,44.66
2022-09-09T03:46:05.696Z,44.41
2022-09-09T03:46:37.172Z,45.00
2022-09-09T03:47:08.575Z,45.32
2022-09-09T03:47:39.965Z,44.87
2022-09-09T03:48:11.372Z,45.04
2022-09-09T03:48:42.788Z,44.97
2022-09-09T03:49:14.191Z,45.14
2022-09-09T03:49:45.580Z,44.70
2022-09-09T03:50:16.979Z,44.62
2022-09-09T03:50:48.359Z,44.93
2022-09-09T03:51:19.962Z,44.79
2022-09-09T03:51:51.380Z,44.65
2022-09-09T03:52:23.882Z,44.83
2022-09-09T03:52:55.388Z,44.85
2022-09-09T03:53:26.811Z,45.17
2022-09-09T03:53:58.227Z,44.83
2022-09-09T03:54:29.633Z,44.92
2022-09-09T03:55:01.024Z,44.86
2022-09-09T03:55:32.416Z,44.71
2022-09-09T03:56:03.799Z,44.88
2022-09-09T03:56:35.193Z,45.15
2022-09-09T03:57:06.584Z,44.96
2022-09-09T03:57:37.963Z,44.90
2022-09-09T03:58:09.359Z,44.43
2022-09-09T03:58:40.764Z,44.75
2022-09-09T03:59:12.260Z,44.69
2022-09-09T03:59:43.665Z,44.93
2022-09-09T04:00:15.056Z,44.73
2022-09-09T04:00:46.486Z,44.80
2022-09-09T04:01:17.961Z,45.15
2022-09-09T04:01:49.445Z,44.93
2022-09-09T04:02:20.949Z,45.04
2022-09-09T04:02:52.372Z,45.03
2022-09-09T04:03:27.826Z,45.05
2022-09-09T04:03:59.808Z,45.10
2022-09-09T04:04:31.250Z,44.97
2022-09-09T04:05:02.632Z,44.75
2022-09-09T04:05:34.020Z,44.95
2022-09-09T04:06:05.399Z,45.03
2022-09-09T04:06:36.788Z,44.61
2022-09-09T04:07:08.188Z,44.51
2022-09-09T04:07:39.577Z,44.85
2022-09-09T04:08:10.978Z,44.50
2022-09-09T04:08:42.365Z,45.35
2022-09-09T04:09:13.771Z,44.77
2022-09-09T04:09:45.187Z,45.28
2022-09-09T04:10:16.570Z,45.06
2022-09-09T04:10:47.957Z,45.00
2022-09-09T04:11:19.343Z,45.03
2022-09-09T04:11:50.733Z,44.89
2022-09-09T04:12:22.116Z,45.13
2022-09-09T04:12:53.505Z,44.51
2022-09-09T04:13:24.911Z,44.91
2022-09-09T04:13:56.315Z,44.83
2022-09-09T04:14:27.700Z,44.82
2022-09-09T04:14:59.144Z,44.82
2022-09-09T04:15:30.533Z,44.99
2022-09-09T04:16:01.959Z,44.95
2022-09-09T04:16:33.442Z,44.79
2022-09-09T04:17:04.845Z,45.00
2022-09-09T04:17:36.229Z,44.88
2022-09-09T04:18:07.618Z,45.00
2022-09-09T04:18:39.031Z,45.08
2022-09-09T04:19:10.414Z,44.86
2022-09-09T04:19:41.876Z,45.19
2022-09-09T04:20:13.290Z,45.15
2022-09-09T04:20:44.692Z,44.92
2022-09-09T04:21:16.076Z,44.56
2022-09-09T04:21:47.458Z,44.82
2022-09-09T04:22:18.860Z,45.22
2022-09-09T04:22:50.249Z,45.53
2022-09-09T04:23:21.636Z,44.77
2022-09-09T04:23:53.031Z,45.00
2022-09-09T04:24:24.421Z,45.00
2022-09-09T04:24:55.951Z,44.62
2022-09-09T04:25:27.342Z,45.23
2022-09-09T04:25:58.729Z,44.92
2022-09-09T04:26:30.113Z,45.13
2022-09-09T04:27:01.494Z,45.25
2022-09-09T04:27:32.885Z,45.38
2022-09-09T04:28:04.276Z,45.20
2022-09-09T04:28:35.736Z,44.54
2022-09-09T04:29:07.244Z,45.03
2022-09-09T04:29:38.632Z,45.16
2022-09-09T04:30:10.061Z,45.30
2022-09-09T04:30:41.473Z,45.04
2022-09-09T04:31:12.937Z,45.01
2022-09-09T04:31:44.426Z,45.30
2022-09-09T04:32:15.836Z,44.43
2022-09-09T04:32:47.243Z,44.99
2022-09-09T04:33:18.623Z,45.28
2022-09-09T04:33:50.032Z,44.83
2022-09-09T04:34:21.426Z,44.99
2022-09-09T04:34:52.808Z,45.15
2022-09-09T04:35:24.232Z,45.07
2022-09-09T04:35:55.640Z,45.01
2022-09-09T04:36:27.035Z,44.95
2022-09-09T04:36:58.419Z,45.33
2022-09-09T04:37:29.808Z,44.66
2022-09-09T04:38:01.197Z,44.75
2022-09-09T04:38:32.660Z,45.18
2022-09-09T04:39:04.140Z,44.96
2022-09-09T04:39:35.545Z,45.10
2022-09-09T04:40:06.992Z,44.75
2022-09-09T04:40:38.521Z,44.94
2022-09-09T04:41:09.905Z,45.33
2022-09-09T04:41:41.292Z,44.76
2022-09-09T04:42:12.684Z,44.88
2022-09-09T04:42:44.067Z,45.31
2022-09-09T04:43:15.466Z,45.25
2022-09-09T04:43:46.848Z,44.76
2022-09-09T04:44:18.246Z,44.65
2022-09-09T04:44:49.629Z,44.84
2022-09-09T04:45:21.038Z,44.90
2022-09-09T04:45:52.612Z,44.80
2022-09-09T04:46:24.004Z,45.38
2022-09-09T04:46:55.386Z,45.27
2022-09-09T04:47:26.768Z,45.10
2022-09-09T04:47:58.151Z,45.17
2022-09-09T04:48:29.697Z,44.84
2022-09-09T04:49:01.210Z,45.33
2022-09-09T04:49:32.621Z,45.13
2022-09-09T04:50:04.009Z,44.99
2022-09-09T04:50:35.419Z,45.33
2022-09-09T04:51:06.952Z,44.91
2022-09-09T04:51:38.354Z,44.82
2022-09-09T04:52:09.736Z,45.07
2022-09-09T04:52:41.120Z,44.78
2022-09-09T04:53:12.512Z,44.54
2022-09-09T04:53:43.917Z,44.45
2022-09-09T04:54:15.313Z,44.95
2022-09-09T04:54:46.721Z,44.71
2022-09-09T04:55:18.103Z,45.03
2022-09-09T04:55:49.512Z,45.49
2022-09-09T04:56:21.010Z,45.23
2022-09-09T04:56:52.404Z,44.82
2022-09-09T04:57:23.795Z,44.75
2022-09-09T04:57:55.197Z,44.98
2022-09-09T04:58:26.599Z,44.64
2022-09-09T04:58:57.988Z,44.74
2022-09-09T04:59:29.384Z,44.93
2022-09-09T05:00:00.771Z,45.13
2022-09-09T05:00:32.202Z,45.18
2022-09-09T05:01:03.629Z,44.57
2022-09-09T05:01:35.085Z,45.17
2022-09-09T05:02:06.497Z,44.94
2022-09-09T05:02:37.939Z,45.17
2022-09-09T05:03:09.375Z,44.76
2022-09-09T05:03:40.759Z,45.08
2022-09-09T05:04:12.150Z,45.17
2022-09-09T05:04:43.536Z,44.28
2022-09-09T05:05:14.933Z,44.90
2022-09-09T05:05:46.316Z,44.61
2022-09-09T05:06:17.741Z,44.59
2022-09-09T05:06:49.129Z,44.83
2022-09-09T05:07:20.516Z,44.62
2022-09-09T05:07:51.904Z,44.91
2022-09-09T05:08:23.306Z,45.06
2022-09-09T05:08:54.689Z,44.70
2022-09-09T05:09:26.076Z,44.87
2022-09-09T05:09:57.475Z,44.64
2022-09-09T05:10:28.874Z,44.67
2022-09-09T05:11:00.257Z,44.47
2022-09-09T05:11:31.753Z,45.33
2022-09-09T05:12:03.141Z,44.40
2022-09-09T05:12:34.539Z,44.57
2022-09-09T05:13:05.942Z,44.49
2022-09-09T05:13:41.270Z,44.83
2022-09-09T05:14:12.899Z,45.22
2022-09-09T05:14:44.286Z,44.65
2022-09-09T05:15:15.673Z,44.86
2022-09-09T05:15:47.052Z,44.94
2022-09-09T05:16:18.479Z,44.92
2022-09-09T05:16:49.911Z,44.98
2022-09-09T05:17:21.329Z,44.93
2022-09-09T05:17:52.711Z,44.63
2022-09-09T05:18:24.098Z,44.62
2022-09-09T05:18:55.479Z,44.99
2022-09-09T05:19:26.877Z,44.89
2022-09-09T05:19:58.264Z,45.29
2022-09-09T05:20:29.646Z,44.88
2022-09-09T05:21:01.040Z,44.95
2022-09-09T05:21:32.442Z,44.52
2022-09-09T05:22:03.996Z,44.92
2022-09-09T05:22:35.371Z,44.41
2022-09-09T05:23:06.752Z,44.97
2022-09-09T05:23:38.141Z,44.92
2022-09-09T05:24:09.545Z,44.99
2022-09-09T05:24:40.925Z,44.57
2022-09-09T05:25:12.320Z,44.90
2022-09-09T05:25:43.704Z,45.05
2022-09-09T05:26:17.409Z,44.82
2022-09-09T05:26:49.346Z,44.69
2022-09-09T05:27:20.825Z,44.95
2022-09-09T05:27:52.225Z,44.73
2022-09-09T05:28:23.627Z,44.81
2022-09-09T05:28:55.011Z,45.00
2022-09-09T05:29:26.417Z,44.55
2022-09-09T05:29:57.811Z,44.96
2022-09-09T05:30:29.197Z,45.12
2022-09-09T05:31:00.590Z,45.08
2022-09-09T05:31:32.101Z,44.87
2022-09-09T05:32:03.627Z,44.82
2022-09-09T05:32:35.200Z,44.86
2022-09-09T05:33:06.836Z,44.76
2022-09-09T05:33:38.446Z,45.09
2022-09-09T05:34:09.879Z,45.27
2022-09-09T05:34:41.934Z,45.26
2022-09-09T05:35:13.741Z,44.95
2022-09-09T05:35:45.478Z,44.80
2022-09-09T05:36:17.343Z,45.01
2022-09-09T05:36:49.176Z,44.95
2022-09-09T05:37:20.953Z,44.64
2022-09-09T05:37:52.935Z,44.96
2022-09-09T05:38:28.561Z,44.89
2022-09-09T05:39:00.723Z,45.00
2022-09-09T05:39:32.197Z,45.41
2022-09-09T05:40:03.730Z,45.34
2022-09-09T05:40:35.164Z,45.10
2022-09-09T05:41:06.564Z,45.16
2022-09-09T05:41:37.973Z,44.83
2022-09-09T05:42:09.364Z,44.71
2022-09-09T05:42:40.775Z,45.14
2022-09-09T05:43:12.309Z,45.33
2022-09-09T05:43:44.122Z,44.89
2022-09-09T05:44:16.482Z,45.13
2022-09-09T05:44:48.399Z,44.65
2022-09-09T05:45:20.322Z,44.76
2022-09-09T05:45:53.577Z,45.33
2022-09-09T05:46:25.487Z,44.99
2022-09-09T05:46:57.432Z,44.83
2022-09-09T05:47:29.402Z,44.98
2022-09-09T05:48:00.917Z,45.19
2022-09-09T05:48:32.475Z,44.79
2022-09-09T05:49:03.890Z,45.23
2022-09-09T05:49:35.294Z,45.17
2022-09-09T05:50:06.700Z,44.73
2022-09-09T05:50:38.085Z,45.00
2022-09-09T05:51:09.484Z,44.99
2022-09-09T05:51:40.863Z,44.63
2022-09-09T05:52:12.267Z,44.91
2022-09-09T05:52:43.663Z,45.06
2022-09-09T05:53:15.050Z,44.86
2022-09-09T05:53:46.568Z,45.35
2022-09-09T05:54:17.977Z,45.15
2022-09-09T05:54:49.375Z,44.83
2022-09-09T05:55:20.776Z,44.79
2022-09-09T05:55:52.161Z,45.24
2022-09-09T05:56:23.564Z,45.32
2022-09-09T05:56:54.957Z,45.03
2022-09-09T05:57:26.383Z,44.76
2022-09-09T05:57:57.773Z,45.16
2022-09-09T05:58:29.874Z,44.80
2022-09-09T05:59:02.864Z,44.94
2022-09-09T05:59:34.478Z,45.06
2022-09-09T06:00:05.895Z,45.03
2022-09-09T06:00:40.698Z,44.92
2022-09-09T06:01:12.107Z,44.92
2022-09-09T06:01:48.991Z,44.97
2022-09-09T06:02:20.599Z,45.20
2022-09-09T06:02:57.535Z,45.02
2022-09-09T06:03:30.910Z,45.24
2022-09-09T06:04:05.068Z,45.27
2022-09-09T06:04:36.820Z,45.07
2022-09-09T06:05:08.226Z,45.02
2022-09-09T06:05:39.635Z,45.00
2022-09-09T06:06:11.038Z,44.89
2022-09-09T06:06:42.676Z,44.97
2022-09-09T06:07:14.104Z,44.88
2022-09-09T06:07:45.584Z,45.09
2022-09-09T06:08:17.174Z,44.73
2022-09-09T06:08:48.670Z,44.58
2022-09-09T06:09:20.382Z,45.00
2022-09-09T06:09:51.864Z,45.21
2022-09-09T06:10:23.297Z,45.01
2022-09-09T06:10:54.930Z,44.94
2022-09-09T06:11:26.339Z,45.03
2022-09-09T06:11:58.779Z,45.22
2022-09-09T06:12:30.306Z,45.30
2022-09-09T06:13:01.724Z,45.32
2022-09-09T06:13:33.186Z,45.21
2022-09-09T06:14:04.758Z,45.08
2022-09-09T06:14:36.300Z,45.28
2022-09-09T06:15:07.689Z,45.08
2022-09-09T06:15:39.092Z,44.72
2022-09-09T06:16:10.551Z,44.99
2022-09-09T06:16:42.016Z,44.95
2022-09-09T06:17:13.459Z,44.92
2022-09-09T06:17:45.124Z,45.07
2022-09-09T06:18:16.847Z,45.12
2022-09-09T06:18:48.323Z,44.91
2022-09-09T06:19:19.800Z,45.24
2022-09-09T06:19:51.615Z,44.75
2022-09-09T06:20:23.191Z,45.15
2022-09-09T06:20:54.658Z,45.01
2022-09-09T06:21:26.272Z,45.12
2022-09-09T06:21:58.239Z,45.25
2022-09-09T06:22:29.974Z,44.91
2022-09-09T06:23:01.610Z,45.29
2022-09-09T06:23:33.215Z,45.15
2022-09-09T06:24:04.782Z,44.97
2022-09-09T06:24:36.392Z,44.98
2022-09-09T06:25:07.941Z,45.37
2022-09-09T06:25:39.411Z,44.83
2022-09-09T06:26:11.252Z,45.46
2022-09-09T06:26:42.980Z,44.98
2022-09-09T06:27:14.812Z,45.25
2022-09-09T06:27:46.722Z,45.15
2022-09-09T06:28:18.199Z,44.96
2022-09-09T06:28:49.913Z,44.83
2022-09-09T06:29:21.397Z,45.25
2022-09-09T06:29:52.945Z,44.92
2022-09-09T06:30:24.323Z,45.33
2022-09-09T06:30:55.707Z,45.49
2022-09-09T06:31:30.035Z,45.10
2022-09-09T06:32:01.700Z,45.21
2022-09-09T06:32:33.239Z,45.34
2022-09-09T06:33:04.652Z,45.42
2022-09-09T06:33:36.107Z,45.25
2022-09-09T06:34:07.580Z,45.36
2022-09-09T06:34:39.170Z,45.00
2022-09-09T06:35:10.761Z,45.44
2022-09-09T06:35:42.184Z,45.39
2022-09-09T06:36:13.738Z,45.20
2022-09-09T06:36:45.444Z,44.82
2022-09-09T06:37:16.895Z,45.12
2022-09-09T06:37:48.303Z,45.25
2022-09-09T06:38:19.804Z,45.25
2022-09-09T06:38:51.183Z,45.41
2022-09-09T06:39:22.751Z,44.95
2022-09-09T06:39:54.539Z,45.03
2022-09-09T06:40:26.136Z,45.38
2022-09-09T06:40:57.756Z,45.39
2022-09-09T06:41:29.388Z,45.73
2022-09-09T06:42:00.829Z,45.32
2022-09-09T06:42:32.270Z,45.15
2022-09-09T06:43:03.844Z,45.75
2022-09-09T06:43:35.237Z,45.27
2022-09-09T06:44:06.652Z,45.18
2022-09-09T06:44:38.238Z,45.19
2022-09-09T06:45:09.704Z,45.69
2022-09-09T06:45:41.123Z,45.19